Terminal Aerodrome Forecast
Issued by NWS

Home | Current Version | Previous Version | Text Only | Print | Product List | Glossary On
Versions: 1 2 3 4 5 6 7 8 9 10 11 12 13 14 15 16 17
000
FTUS44 KOHX 260452 AAC
TAFCKV
TAF AMD
KCKV 260452Z 2605/2624 10003KT P6SM SKC
      TEMPO 2607/2611 2SM BR
     FM261200 00000KT P6SM SKC
     FM261900 24005KT P6SM VCSH SCT045 BKN090=

USA.gov is the U.S. government's official web portal to all federal, state and local government web resources and services.